createdAt,value
2023-01-27T00:02:22.186Z,0.33
2023-01-27T00:04:52.480Z,0.41
2023-01-27T00:07:22.748Z,0.40
2023-01-27T00:09:53.057Z,0.39
2023-01-27T00:12:41.481Z,0.44
2023-01-27T00:15:13.745Z,0.41
2023-01-27T00:17:44.207Z,0.46
2023-01-27T00:20:35.581Z,0.48
2023-01-27T00:23:18.253Z,0.52
2023-01-27T00:25:58.407Z,0.56
2023-01-27T00:28:31.379Z,0.50
2023-01-27T00:31:02.691Z,0.55
2023-01-27T00:33:30.384Z,0.54
2023-01-27T00:36:02.747Z,0.55
2023-01-27T00:38:34.841Z,0.64
2023-01-27T00:41:17.911Z,0.69
2023-01-27T00:43:52.322Z,0.76
2023-01-27T00:46:24.339Z,0.76
2023-01-27T00:48:55.705Z,0.74
2023-01-27T00:51:26.192Z,0.71
2023-01-27T00:53:56.431Z,0.69
2023-01-27T00:56:28.293Z,0.66
2023-01-27T00:59:02.007Z,0.68
2023-01-27T01:01:34.097Z,0.55
2023-01-27T01:04:04.744Z,0.53
2023-01-27T01:06:35.261Z,0.55
2023-01-27T01:09:06.485Z,0.62
2023-01-27T01:11:36.795Z,0.62
2023-01-27T01:14:09.749Z,0.62
2023-01-27T01:16:40.052Z,0.63
2023-01-27T01:19:10.484Z,0.67
2023-01-27T01:21:41.162Z,0.61
2023-01-27T01:24:11.783Z,0.64
2023-01-27T01:26:42.178Z,0.64
2023-01-27T01:29:15.146Z,0.58
2023-01-27T01:31:45.429Z,0.60
2023-01-27T01:34:15.818Z,0.67
2023-01-27T01:36:47.419Z,0.70
2023-01-27T01:39:17.715Z,0.74
2023-01-27T01:41:48.116Z,0.76
2023-01-27T01:44:26.311Z,0.74
2023-01-27T01:46:56.800Z,0.72
2023-01-27T01:49:37.713Z,0.75
2023-01-27T01:52:13.407Z,0.73
2023-01-27T01:54:48.386Z,0.69
2023-01-27T01:57:24.581Z,0.63
2023-01-27T02:00:02.433Z,0.60
2023-01-27T02:02:33.462Z,0.62
2023-01-27T02:05:09.753Z,0.63
2023-01-27T02:07:47.266Z,0.57
2023-01-27T02:10:18.342Z,0.65
2023-01-27T02:12:49.239Z,0.66
2023-01-27T02:15:22.728Z,0.67
2023-01-27T02:17:53.430Z,0.70
2023-01-27T02:20:34.431Z,0.74
2023-01-27T02:23:14.513Z,0.64
2023-01-27T02:25:52.013Z,0.62
2023-01-27T02:28:22.379Z,0.60
2023-01-27T02:30:52.764Z,0.67
2023-01-27T02:33:23.128Z,0.71
2023-01-27T02:36:03.802Z,0.75
2023-01-27T02:38:39.331Z,0.81
2023-01-27T02:41:18.881Z,0.83
2023-01-27T02:43:54.418Z,0.88
2023-01-27T02:46:25.282Z,0.83
2023-01-27T02:48:56.384Z,0.81
2023-01-27T02:51:26.601Z,0.88
2023-01-27T02:53:57.250Z,0.88
2023-01-27T02:56:30.355Z,0.89
2023-01-27T02:59:01.279Z,0.92
2023-01-27T03:01:41.944Z,0.91
2023-01-27T03:04:12.328Z,0.86
2023-01-27T03:06:42.902Z,0.77
2023-01-27T03:09:13.319Z,0.72
2023-01-27T03:11:58.686Z,0.75
2023-01-27T03:14:41.358Z,0.74
2023-01-27T03:17:24.113Z,0.78
2023-01-27T03:19:54.794Z,0.75
2023-01-27T03:22:26.320Z,0.74
2023-01-27T03:24:57.571Z,0.67
2023-01-27T03:27:31.483Z,0.68
2023-01-27T03:30:20.712Z,0.70
2023-01-27T03:33:00.083Z,0.69
2023-01-27T03:36:01.268Z,0.66
2023-01-27T03:38:44.531Z,0.65
2023-01-27T03:41:27.612Z,0.67
2023-01-27T03:44:13.267Z,0.71
2023-01-27T03:46:43.607Z,0.73
2023-01-27T03:49:13.905Z,0.70
2023-01-27T03:51:44.237Z,0.74
2023-01-27T03:54:14.507Z,0.78
2023-01-27T03:56:45.008Z,0.77
2023-01-27T03:59:18.361Z,0.80
2023-01-27T04:01:48.688Z,0.80
2023-01-27T04:04:31.355Z,0.83
2023-01-27T04:07:03.120Z,0.85
2023-01-27T04:09:36.120Z,0.84
2023-01-27T04:12:10.103Z,0.88
2023-01-27T04:14:44.764Z,0.86
2023-01-27T04:17:16.803Z,0.90
2023-01-27T04:19:48.816Z,0.87
2023-01-27T04:22:20.025Z,0.90
2023-01-27T04:24:50.333Z,0.91
2023-01-27T04:27:21.133Z,0.90
2023-01-27T04:29:54.122Z,0.90
2023-01-27T04:32:24.445Z,0.88
2023-01-27T04:34:54.856Z,0.89
2023-01-27T04:37:25.184Z,0.86
2023-01-27T04:39:55.519Z,0.85
2023-01-27T04:42:25.828Z,0.80
2023-01-27T04:44:59.016Z,0.78
2023-01-27T04:47:29.313Z,0.79
2023-01-27T04:49:59.643Z,0.82
2023-01-27T04:52:29.946Z,0.87
2023-01-27T04:55:00.309Z,0.91
2023-01-27T04:57:30.667Z,0.92
2023-01-27T05:00:03.606Z,0.97
2023-01-27T05:02:33.965Z,0.94
2023-01-27T05:05:04.821Z,0.91
2023-01-27T05:07:35.743Z,0.92
2023-01-27T05:10:06.128Z,0.94
2023-01-27T05:12:36.651Z,0.98
2023-01-27T05:15:12.031Z,0.96
2023-01-27T05:17:42.478Z,0.97
2023-01-27T05:20:14.560Z,0.99
2023-01-27T05:22:44.977Z,0.98
2023-01-27T05:25:15.852Z,0.95
2023-01-27T05:27:46.510Z,0.95
2023-01-27T05:30:20.069Z,0.95
2023-01-27T05:32:50.557Z,1.00
2023-01-27T05:35:21.345Z,1.00
2023-01-27T05:37:51.719Z,0.95
2023-01-27T05:40:22.294Z,0.93
2023-01-27T05:42:54.719Z,0.94
2023-01-27T05:45:27.633Z,0.94
2023-01-27T05:47:58.147Z,1.00
2023-01-27T05:50:28.539Z,1.04
2023-01-27T05:52:58.830Z,1.04
2023-01-27T05:55:29.529Z,1.01
2023-01-27T05:58:02.426Z,1.00
2023-01-27T06:00:35.424Z,0.97
2023-01-27T06:03:05.814Z,0.97
2023-01-27T06:05:36.330Z,0.96
2023-01-27T06:08:07.227Z,0.97
2023-01-27T06:10:37.601Z,0.96
2023-01-27T06:13:08.165Z,0.99
2023-01-27T06:15:44.746Z,1.00
2023-01-27T06:18:16.094Z,0.99
2023-01-27T06:20:46.715Z,0.97
2023-01-27T06:23:19.219Z,1.00
2023-01-27T06:25:51.950Z,1.00
2023-01-27T06:28:29.149Z,0.99
2023-01-27T06:31:09.267Z,1.01
2023-01-27T06:33:40.131Z,1.01
2023-01-27T06:36:14.784Z,1.00
2023-01-27T06:38:45.245Z,1.01
2023-01-27T06:41:15.689Z,1.00
2023-01-27T06:43:46.183Z,1.02
2023-01-27T06:46:19.512Z,1.04
2023-01-27T06:48:49.858Z,1.05
2023-01-27T06:51:20.167Z,1.03
2023-01-27T06:53:50.438Z,1.02
2023-01-27T06:56:20.773Z,1.02
2023-01-27T06:58:51.486Z,1.04
2023-01-27T07:01:24.688Z,1.02
2023-01-27T07:03:55.046Z,1.01
2023-01-27T07:06:25.311Z,1.05
2023-01-27T07:08:55.712Z,1.07
2023-01-27T07:11:26.321Z,1.03
2023-01-27T07:13:56.703Z,1.03
2023-01-27T07:16:29.724Z,1.01
2023-01-27T07:19:00.103Z,0.99
2023-01-27T07:21:30.423Z,1.02
2023-01-27T07:24:00.713Z,0.99
2023-01-27T07:26:31.154Z,1.00
2023-01-27T07:29:01.448Z,1.04
2023-01-27T07:31:36.429Z,1.06
2023-01-27T07:34:06.847Z,1.09
2023-01-27T07:36:37.068Z,1.11
2023-01-27T07:39:07.621Z,1.13
2023-01-27T07:41:37.928Z,1.14
2023-01-27T07:44:08.395Z,1.17
2023-01-27T07:46:41.474Z,1.17
2023-01-27T07:49:12.611Z,1.16
2023-01-27T07:51:42.963Z,1.14
2023-01-27T07:54:13.348Z,1.21
2023-01-27T07:56:43.627Z,1.21
2023-01-27T07:59:14.269Z,1.21
2023-01-27T08:01:48.398Z,1.24
2023-01-27T08:04:18.791Z,1.29
2023-01-27T08:06:49.177Z,1.30
2023-01-27T08:09:19.677Z,1.28
2023-01-27T08:11:50.041Z,1.29
2023-01-27T08:14:20.591Z,1.31
2023-01-27T08:16:53.591Z,1.32
2023-01-27T08:19:23.964Z,1.31
2023-01-27T08:21:54.213Z,1.30
2023-01-27T08:24:24.726Z,1.32
2023-01-27T08:26:55.104Z,1.32
2023-01-27T08:29:25.402Z,1.32
2023-01-27T08:31:58.319Z,1.33
2023-01-27T08:34:28.704Z,1.35
2023-01-27T08:36:59.021Z,1.37
2023-01-27T08:39:29.411Z,1.40
2023-01-27T08:41:59.910Z,1.38
2023-01-27T08:44:30.636Z,1.39
2023-01-27T08:47:03.685Z,1.44
2023-01-27T08:49:34.086Z,1.43
2023-01-27T08:52:04.390Z,1.43
2023-01-27T08:54:34.683Z,1.41
2023-01-27T08:57:04.964Z,1.45
2023-01-27T08:59:35.202Z,1.48
2023-01-27T09:02:08.149Z,1.40
2023-01-27T09:04:42.040Z,1.46
2023-01-27T09:07:12.505Z,1.46
2023-01-27T09:09:42.819Z,1.44
2023-01-27T09:12:13.238Z,1.47
2023-01-27T09:14:43.770Z,1.47
2023-01-27T09:17:19.754Z,1.55
2023-01-27T09:19:50.091Z,1.61
2023-01-27T09:22:20.433Z,1.79
2023-01-27T09:24:50.709Z,1.83
2023-01-27T09:27:37.116Z,1.94
2023-01-27T09:30:11.551Z,1.94
2023-01-27T09:32:45.399Z,2.05
2023-01-27T09:35:15.997Z,2.11
2023-01-27T09:37:50.862Z,2.08
2023-01-27T09:40:33.416Z,2.15
2023-01-27T09:43:29.397Z,2.03
2023-01-27T09:46:22.612Z,2.04
2023-01-27T09:49:28.588Z,2.06
2023-01-27T09:52:18.298Z,2.13
2023-01-27T09:55:03.489Z,2.21
2023-01-27T09:57:47.150Z,2.23
2023-01-27T10:00:33.683Z,2.23
2023-01-27T10:03:36.361Z,2.14
2023-01-27T10:06:34.791Z,2.15
2023-01-27T10:10:08.002Z,2.10
2023-01-27T10:13:00.576Z,2.08
2023-01-27T10:15:50.330Z,2.06
2023-01-27T10:18:42.541Z,2.06
2023-01-27T10:21:24.547Z,2.04
2023-01-27T10:24:06.136Z,2.03
2023-01-27T10:26:44.646Z,2.07
2023-01-27T10:29:24.130Z,2.10
2023-01-27T10:32:00.910Z,2.11
2023-01-27T10:34:38.160Z,2.12
2023-01-27T10:37:27.511Z,2.13
2023-01-27T10:40:06.313Z,2.10
2023-01-27T10:42:44.449Z,2.08
2023-01-27T10:45:29.131Z,2.08
2023-01-27T10:48:24.482Z,2.05
2023-01-27T10:51:02.157Z,2.08
2023-01-27T10:53:43.225Z,2.05
2023-01-27T10:56:24.816Z,2.11
2023-01-27T10:59:04.568Z,2.13
2023-01-27T11:01:40.387Z,2.19
2023-01-27T11:04:17.751Z,2.24
2023-01-27T11:06:50.365Z,2.21
2023-01-27T11:09:31.695Z,2.24
2023-01-27T11:12:07.737Z,2.18
2023-01-27T11:14:48.630Z,2.18
2023-01-27T11:17:28.761Z,2.27
2023-01-27T11:20:12.734Z,2.32
2023-01-27T11:22:58.744Z,2.37
2023-01-27T11:25:46.517Z,2.37
2023-01-27T11:28:31.451Z,2.37
2023-01-27T11:31:13.252Z,2.42
2023-01-27T11:33:58.226Z,2.41
2023-01-27T11:36:29.233Z,2.44
2023-01-27T11:39:01.716Z,2.46
2023-01-27T11:41:37.522Z,2.47
2023-01-27T11:44:15.979Z,2.46
2023-01-27T11:46:48.236Z,2.44
2023-01-27T11:49:24.336Z,2.47
2023-01-27T11:51:54.711Z,2.45
2023-01-27T11:54:28.766Z,2.39
2023-01-27T11:57:01.616Z,2.39
2023-01-27T11:59:37.950Z,2.34
2023-01-27T12:02:27.473Z,2.31
2023-01-27T12:05:06.382Z,2.28
2023-01-27T12:07:54.689Z,2.32
2023-01-27T12:10:31.367Z,2.28
2023-01-27T12:13:11.810Z,2.31
2023-01-27T12:15:55.958Z,2.30
2023-01-27T12:18:26.680Z,2.39
2023-01-27T12:21:03.821Z,2.45
2023-01-27T12:23:39.460Z,2.50
2023-01-27T12:26:12.839Z,2.54
2023-01-27T12:28:54.085Z,2.66
2023-01-27T12:31:30.597Z,2.71
2023-01-27T12:34:05.740Z,2.70
2023-01-27T12:36:43.184Z,2.67
2023-01-27T12:39:33.792Z,2.65
2023-01-27T12:42:04.114Z,2.58
2023-01-27T12:44:48.937Z,2.63
2023-01-27T12:47:28.196Z,2.71
2023-01-27T12:50:23.957Z,2.69
2023-01-27T12:53:07.617Z,2.67
2023-01-27T12:55:41.951Z,2.66
2023-01-27T12:58:34.144Z,2.72
2023-01-27T13:01:11.038Z,2.72
2023-01-27T13:03:45.794Z,2.75
2023-01-27T13:06:19.951Z,2.73
2023-01-27T13:08:53.509Z,2.79
2023-01-27T13:11:37.450Z,2.79
2023-01-27T13:14:13.269Z,2.80
2023-01-27T13:16:54.728Z,2.82
2023-01-27T13:19:35.928Z,2.80
2023-01-27T13:22:08.165Z,2.79
2023-01-27T13:24:42.895Z,2.79
2023-01-27T13:27:19.150Z,2.77
2023-01-27T13:30:01.119Z,2.72
2023-01-27T13:32:39.378Z,2.66
2023-01-27T13:35:21.963Z,2.66
2023-01-27T13:38:03.781Z,2.67
2023-01-27T13:40:41.066Z,2.72
2023-01-27T13:43:17.003Z,2.76
2023-01-27T13:45:56.348Z,2.84
2023-01-27T13:48:37.908Z,2.97
2023-01-27T13:51:12.769Z,3.00
2023-01-27T13:53:43.696Z,3.03
2023-01-27T13:56:35.578Z,3.03
2023-01-27T13:59:22.930Z,3.04
2023-01-27T14:02:06.570Z,3.05
2023-01-27T14:05:14.148Z,2.94
2023-01-27T14:07:51.536Z,2.92
2023-01-27T14:10:29.902Z,2.86
2023-01-27T14:13:18.216Z,2.84
2023-01-27T14:15:55.829Z,2.75
2023-01-27T14:18:31.141Z,2.79
2023-01-27T14:21:34.875Z,2.86
2023-01-27T14:24:24.321Z,2.81
2023-01-27T14:27:04.799Z,2.97
2023-01-27T14:29:45.284Z,3.06
2023-01-27T14:32:29.177Z,3.12
2023-01-27T14:35:28.087Z,3.15
2023-01-27T14:38:13.839Z,3.15
2023-01-27T14:40:58.417Z,3.11
2023-01-27T14:43:39.568Z,3.09
2023-01-27T14:46:22.623Z,3.06
2023-01-27T14:49:09.508Z,3.04
2023-01-27T14:51:48.164Z,3.05
2023-01-27T14:54:39.063Z,3.02
2023-01-27T14:57:30.359Z,3.01
2023-01-27T15:00:31.645Z,2.98
2023-01-27T15:03:26.201Z,3.00
2023-01-27T15:06:05.781Z,2.97
2023-01-27T15:08:43.436Z,2.98
2023-01-27T15:11:51.927Z,2.94
2023-01-27T15:15:21.970Z,2.93
2023-01-27T15:18:19.781Z,2.90
2023-01-27T15:21:13.156Z,2.87
2023-01-27T15:24:19.022Z,2.84
2023-01-27T15:26:52.381Z,2.86
2023-01-27T15:29:29.124Z,2.90
2023-01-27T15:32:30.582Z,2.85
2023-01-27T15:35:34.935Z,2.83
2023-01-27T15:38:22.243Z,2.82
2023-01-27T15:41:14.793Z,2.82
2023-01-27T15:44:18.565Z,2.83
2023-01-27T15:46:51.259Z,2.76
2023-01-27T15:49:26.294Z,2.75
2023-01-27T15:51:59.939Z,2.66
2023-01-27T15:54:35.035Z,2.68
2023-01-27T15:57:09.085Z,2.70
2023-01-27T15:59:59.150Z,2.67
2023-01-27T16:02:32.178Z,2.63
2023-01-27T16:05:28.294Z,2.60
2023-01-27T16:08:03.877Z,2.61
2023-01-27T16:10:37.653Z,2.60
2023-01-27T16:13:27.251Z,2.58
2023-01-27T16:16:59.786Z,2.59
2023-01-27T16:19:34.338Z,2.59
2023-01-27T16:22:08.952Z,2.61
2023-01-27T16:24:45.757Z,2.59
2023-01-27T16:27:37.038Z,2.54
2023-01-27T16:30:21.647Z,2.51
2023-01-27T16:33:06.717Z,2.49
2023-01-27T16:35:46.765Z,2.52
2023-01-27T16:38:28.549Z,2.45
2023-01-27T16:41:03.655Z,2.42
2023-01-27T16:43:44.713Z,2.46
2023-01-27T16:46:33.030Z,2.47
2023-01-27T16:49:14.866Z,2.47
2023-01-27T16:51:46.141Z,2.47
2023-01-27T16:54:22.834Z,2.50
2023-01-27T16:56:55.478Z,2.54
2023-01-27T16:59:30.236Z,2.59
2023-01-27T17:02:05.736Z,2.59
2023-01-27T17:04:38.864Z,2.59
2023-01-27T17:07:13.515Z,2.60
2023-01-27T17:09:46.359Z,2.61
2023-01-27T17:12:32.586Z,2.60
2023-01-27T17:15:05.286Z,2.67
2023-01-27T17:17:38.720Z,2.71
2023-01-27T17:20:24.304Z,2.73
2023-01-27T17:22:57.601Z,2.71
2023-01-27T17:25:36.487Z,2.65
2023-01-27T17:28:13.358Z,2.62
2023-01-27T17:30:47.000Z,2.68
2023-01-27T17:33:22.359Z,2.70
2023-01-27T17:35:58.215Z,2.69
2023-01-27T17:38:44.508Z,2.68
2023-01-27T17:41:41.788Z,2.69
2023-01-27T17:44:17.108Z,2.67
2023-01-27T17:46:47.612Z,2.70
2023-01-27T17:49:21.116Z,2.77
2023-01-27T17:51:57.694Z,2.80
2023-01-27T17:54:31.250Z,2.83
2023-01-27T17:57:08.037Z,2.86
2023-01-27T17:59:42.540Z,2.83
2023-01-27T18:02:24.159Z,2.80
2023-01-27T18:04:57.242Z,2.79
2023-01-27T18:07:30.557Z,2.80
2023-01-27T18:10:01.193Z,2.79
2023-01-27T18:12:37.375Z,2.80
2023-01-27T18:15:44.212Z,2.75
2023-01-27T18:18:27.137Z,2.79
2023-01-27T18:21:09.013Z,2.84
2023-01-27T18:23:48.181Z,2.82
2023-01-27T18:26:24.503Z,2.83
2023-01-27T18:28:58.311Z,2.82
2023-01-27T18:31:32.673Z,2.72
2023-01-27T18:34:15.551Z,2.70
2023-01-27T18:36:56.503Z,2.66
2023-01-27T18:39:36.880Z,2.67
2023-01-27T18:42:14.438Z,2.71
2023-01-27T18:44:45.433Z,2.65
2023-01-27T18:47:30.273Z,2.63
2023-01-27T18:50:05.439Z,2.66
2023-01-27T18:52:36.418Z,2.70
2023-01-27T18:55:18.621Z,2.67
2023-01-27T18:57:50.729Z,2.63
2023-01-27T19:00:24.090Z,2.63
2023-01-27T19:02:58.552Z,2.59
2023-01-27T19:05:31.943Z,2.62
2023-01-27T19:08:03.103Z,2.61
2023-01-27T19:10:37.707Z,2.60
2023-01-27T19:13:08.101Z,2.63
2023-01-27T19:15:41.948Z,2.56
2023-01-27T19:18:19.003Z,2.59
2023-01-27T19:20:49.398Z,2.56
2023-01-27T19:23:22.077Z,2.53
2023-01-27T19:25:57.648Z,2.55
2023-01-27T19:28:33.316Z,2.56
2023-01-27T19:31:03.751Z,2.56
2023-01-27T19:33:37.250Z,2.52
2023-01-27T19:36:23.724Z,2.53
2023-01-27T19:38:58.777Z,2.53
2023-01-27T19:41:32.123Z,2.52
2023-01-27T19:44:03.715Z,2.54
2023-01-27T19:46:36.438Z,2.52
2023-01-27T19:49:06.843Z,2.50
2023-01-27T19:51:38.083Z,2.52
2023-01-27T19:54:10.004Z,2.55
2023-01-27T19:56:43.485Z,2.53
2023-01-27T19:59:15.973Z,2.60
2023-01-27T20:01:46.331Z,2.63
2023-01-27T20:04:16.764Z,2.64
2023-01-27T20:06:47.026Z,2.61
2023-01-27T20:09:17.296Z,2.63
2023-01-27T20:11:50.248Z,2.61
2023-01-27T20:14:25.954Z,2.57
2023-01-27T20:16:56.366Z,2.57
2023-01-27T20:19:26.888Z,2.58
2023-01-27T20:22:01.204Z,2.57
2023-01-27T20:24:31.457Z,2.56
2023-01-27T20:27:04.383Z,2.56
2023-01-27T20:29:35.579Z,2.53
2023-01-27T20:32:09.232Z,2.58
2023-01-27T20:34:40.583Z,2.63
2023-01-27T20:37:10.892Z,2.65
2023-01-27T20:39:41.173Z,2.63
2023-01-27T20:42:14.052Z,2.57
2023-01-27T20:44:44.372Z,2.51
2023-01-27T20:47:15.628Z,2.44
2023-01-27T20:49:46.638Z,2.43
2023-01-27T20:52:17.012Z,2.41
2023-01-27T20:54:47.397Z,2.42
2023-01-27T20:57:22.141Z,2.46
2023-01-27T20:59:52.462Z,2.45
2023-01-27T21:02:22.981Z,2.45
2023-01-27T21:04:53.306Z,2.46
2023-01-27T21:07:24.045Z,2.47
2023-01-27T21:09:55.511Z,2.53
2023-01-27T21:12:29.538Z,2.55
2023-01-27T21:15:01.771Z,2.53
2023-01-27T21:17:32.072Z,2.53
2023-01-27T21:20:02.392Z,2.51
2023-01-27T21:22:34.540Z,2.50
2023-01-27T21:25:05.042Z,2.54
2023-01-27T21:27:37.969Z,2.56
2023-01-27T21:30:10.411Z,2.56
2023-01-27T21:32:40.914Z,2.50
2023-01-27T21:35:12.453Z,2.47
2023-01-27T21:37:43.095Z,2.55
2023-01-27T21:40:15.636Z,2.58
2023-01-27T21:43:00.977Z,2.60
2023-01-27T21:45:31.582Z,2.56
2023-01-27T21:48:01.938Z,2.59
2023-01-27T21:50:32.222Z,2.56
2023-01-27T21:53:02.561Z,2.45
2023-01-27T21:55:35.441Z,2.45
2023-01-27T21:58:08.415Z,2.45
2023-01-27T22:00:38.815Z,2.45
2023-01-27T22:03:09.176Z,2.43
2023-01-27T22:05:40.969Z,2.45
2023-01-27T22:08:11.814Z,2.56
2023-01-27T22:10:42.529Z,2.58
2023-01-27T22:13:15.478Z,2.57
2023-01-27T22:15:45.692Z,2.54
2023-01-27T22:18:16.052Z,2.58
2023-01-27T22:20:46.374Z,2.58
2023-01-27T22:23:19.027Z,2.62
2023-01-27T22:25:52.125Z,2.63
2023-01-27T22:28:26.661Z,2.64
2023-01-27T22:30:57.202Z,2.67
2023-01-27T22:33:27.709Z,2.63
2023-01-27T22:36:05.373Z,2.62
2023-01-27T22:38:40.307Z,2.65
2023-01-27T22:41:10.665Z,2.67
2023-01-27T22:43:43.635Z,2.70
2023-01-27T22:46:13.875Z,2.63
2023-01-27T22:48:44.466Z,2.69
2023-01-27T22:51:15.094Z,2.72
2023-01-27T22:53:45.534Z,2.70
2023-01-27T22:56:15.846Z,2.72
2023-01-27T22:58:48.814Z,2.71
2023-01-27T23:01:19.187Z,2.69
2023-01-27T23:03:49.571Z,2.65
2023-01-27T23:06:19.877Z,2.63
2023-01-27T23:08:50.238Z,2.62
2023-01-27T23:11:20.599Z,2.62
2023-01-27T23:13:54.145Z,2.62
2023-01-27T23:16:24.613Z,2.66
2023-01-27T23:18:55.129Z,2.69
2023-01-27T23:21:25.785Z,2.73
2023-01-27T23:23:56.263Z,2.68
2023-01-27T23:26:26.627Z,2.66
2023-01-27T23:28:59.512Z,2.62
2023-01-27T23:31:29.930Z,2.61
2023-01-27T23:34:00.287Z,2.59
2023-01-27T23:36:30.622Z,2.65
2023-01-27T23:39:00.993Z,2.67
2023-01-27T23:41:31.351Z,2.67
2023-01-27T23:44:04.293Z,2.67
2023-01-27T23:46:34.622Z,2.68
2023-01-27T23:49:04.985Z,2.64
2023-01-27T23:51:35.511Z,2.72
2023-01-27T23:54:06.209Z,2.72
2023-01-27T23:56:37.092Z,2.72
2023-01-27T23:59:10.115Z,2.77
